createdAt,value
2023-03-05T00:00:08.291Z,1.40
2023-03-05T00:01:08.308Z,1.50
2023-03-05T00:02:08.346Z,1.40
2023-03-05T00:03:08.339Z,1.50
2023-03-05T00:04:08.357Z,1.50
2023-03-05T00:05:08.373Z,1.40
2023-03-05T00:06:08.400Z,1.70
2023-03-05T00:07:08.419Z,1.30
2023-03-05T00:08:08.423Z,1.70
2023-03-05T00:09:08.445Z,1.40
2023-03-05T00:10:08.464Z,1.40
2023-03-05T00:11:08.471Z,1.90
2023-03-05T00:12:08.485Z,1.30
2023-03-05T00:13:08.498Z,1.50
2023-03-05T00:14:08.544Z,1.40
2023-03-05T00:15:08.540Z,1.80
2023-03-05T00:16:08.715Z,1.40
2023-03-05T00:17:08.569Z,1.70
2023-03-05T00:18:08.582Z,1.40
2023-03-05T00:19:08.602Z,1.60
2023-03-05T00:20:08.616Z,1.30
2023-03-05T00:21:08.645Z,1.40
2023-03-05T00:22:08.664Z,1.80
2023-03-05T00:23:08.690Z,1.30
2023-03-05T00:24:08.709Z,1.60
2023-03-05T00:25:08.723Z,1.40
2023-03-05T00:26:08.725Z,1.30
2023-03-05T00:27:08.733Z,1.70
2023-03-05T00:28:08.776Z,2.20
2023-03-05T00:29:08.775Z,1.30
2023-03-05T00:30:08.786Z,1.40
2023-03-05T00:31:08.887Z,2.50
2023-03-05T00:32:08.881Z,1.60
2023-03-05T00:33:08.839Z,1.40
2023-03-05T00:34:08.869Z,1.30
2023-03-05T00:35:08.878Z,1.70
2023-03-05T00:36:08.891Z,1.30
2023-03-05T00:37:08.908Z,1.70
2023-03-05T00:38:08.937Z,1.30
2023-03-05T00:39:08.970Z,1.40
2023-03-05T00:40:09.030Z,1.50
2023-03-05T00:41:08.980Z,1.30
2023-03-05T00:42:09.945Z,1.30
2023-03-05T00:43:09.035Z,1.40
2023-03-05T00:44:09.040Z,1.30
2023-03-05T00:45:09.052Z,1.40
2023-03-05T00:46:09.156Z,1.60
2023-03-05T00:47:09.108Z,1.60
2023-03-05T00:48:09.103Z,1.70
2023-03-05T00:49:09.123Z,1.30
2023-03-05T00:50:09.135Z,1.50
2023-03-05T00:51:09.179Z,2.00
2023-03-05T00:52:09.194Z,1.60
2023-03-05T00:53:09.204Z,1.30
2023-03-05T00:54:09.204Z,1.90
2023-03-05T00:55:09.243Z,1.60
2023-03-05T00:56:09.235Z,1.70
2023-03-05T00:57:09.248Z,1.30
2023-03-05T00:58:09.271Z,1.40
2023-03-05T00:59:09.305Z,1.50
2023-03-05T01:00:09.308Z,1.30
2023-03-05T01:01:09.326Z,1.60
2023-03-05T01:02:09.330Z,1.40
2023-03-05T01:03:09.343Z,1.30
2023-03-05T01:04:09.368Z,1.60
2023-03-05T01:05:09.413Z,1.50
2023-03-05T01:06:09.399Z,1.30
2023-03-05T01:07:09.408Z,1.30
2023-03-05T01:08:09.431Z,1.30
2023-03-05T01:09:09.452Z,2.60
2023-03-05T01:10:09.464Z,1.40
2023-03-05T01:11:09.500Z,1.50
2023-03-05T01:12:09.503Z,1.40
2023-03-05T01:13:09.518Z,1.70
2023-03-05T01:14:09.541Z,1.60
2023-03-05T01:15:09.548Z,1.40
2023-03-05T01:16:09.607Z,1.40
2023-03-05T01:17:09.586Z,1.20
2023-03-05T01:18:09.591Z,1.50
2023-03-05T01:19:09.602Z,1.60
2023-03-05T01:20:09.624Z,1.70
2023-03-05T01:21:09.640Z,1.40
2023-03-05T01:22:09.657Z,2.00
2023-03-05T01:23:09.695Z,1.70
2023-03-05T01:24:09.688Z,1.50
2023-03-05T01:25:09.712Z,1.60
2023-03-05T01:26:09.730Z,1.80
2023-03-05T01:27:09.749Z,1.50
2023-03-05T01:28:09.772Z,1.90
2023-03-05T01:29:09.764Z,1.50
2023-03-05T01:30:09.782Z,1.40
2023-03-05T01:31:09.886Z,1.30
2023-03-05T01:32:09.852Z,1.40
2023-03-05T01:33:09.850Z,1.50
2023-03-05T01:34:09.860Z,1.40
2023-03-05T01:35:09.865Z,1.50
2023-03-05T01:36:09.893Z,1.40
2023-03-05T01:37:09.899Z,1.70
2023-03-05T01:38:09.917Z,1.40
2023-03-05T01:39:09.935Z,1.60
2023-03-05T01:40:09.960Z,1.60
2023-03-05T01:41:09.974Z,1.30
2023-03-05T01:42:09.992Z,1.50
2023-03-05T01:43:10.026Z,1.60
2023-03-05T01:44:10.020Z,1.50
2023-03-05T01:45:10.057Z,1.50
2023-03-05T01:46:10.124Z,1.40
2023-03-05T01:47:10.073Z,1.90
2023-03-05T01:48:10.088Z,2.20
2023-03-05T01:49:10.117Z,1.20
2023-03-05T01:50:10.125Z,1.60
2023-03-05T01:51:10.151Z,1.40
2023-03-05T01:52:10.165Z,1.60
2023-03-05T01:53:10.178Z,1.40
2023-03-05T01:54:10.188Z,1.40
2023-03-05T01:55:10.214Z,1.60
2023-03-05T01:56:10.230Z,2.20
2023-03-05T01:57:10.246Z,1.40
2023-03-05T01:58:10.255Z,1.40
2023-03-05T01:59:10.293Z,1.40
2023-03-05T02:00:10.292Z,1.70
2023-03-05T02:01:10.359Z,1.40
2023-03-05T02:02:10.321Z,1.50
2023-03-05T02:03:10.366Z,1.50
2023-03-05T02:04:10.453Z,1.70
2023-03-05T02:05:10.372Z,1.40
2023-03-05T02:06:10.405Z,1.50
2023-03-05T02:07:10.405Z,2.20
2023-03-05T02:08:10.440Z,1.60
2023-03-05T02:09:10.444Z,1.40
2023-03-05T02:10:10.461Z,1.50
2023-03-05T02:11:10.481Z,2.20
2023-03-05T02:12:10.508Z,1.40
2023-03-05T02:13:10.514Z,1.40
2023-03-05T02:14:10.567Z,1.30
2023-03-05T02:15:10.581Z,1.60
2023-03-05T02:16:10.597Z,1.90
2023-03-05T02:17:10.576Z,1.50
2023-03-05T02:18:10.600Z,1.40
2023-03-05T02:19:10.609Z,2.40
2023-03-05T02:20:10.635Z,1.50
2023-03-05T02:21:10.650Z,1.70
2023-03-05T02:22:10.661Z,1.40
2023-03-05T02:23:10.692Z,1.50
2023-03-05T02:24:10.703Z,1.40
2023-03-05T02:25:10.713Z,1.50
2023-03-05T02:26:10.731Z,1.40
2023-03-05T02:27:10.759Z,1.50
2023-03-05T02:28:10.769Z,1.60
2023-03-05T02:29:10.782Z,1.20
2023-03-05T02:30:10.803Z,1.40
2023-03-05T02:31:10.840Z,1.30
2023-03-05T02:32:10.986Z,1.50
2023-03-05T02:33:10.846Z,1.90
2023-03-05T02:34:10.867Z,1.40
2023-03-05T02:35:10.884Z,1.50
2023-03-05T02:36:10.904Z,1.40
2023-03-05T02:37:10.926Z,1.40
2023-03-05T02:38:10.930Z,1.50
2023-03-05T02:39:10.948Z,2.00
2023-03-05T02:40:10.973Z,1.60
2023-03-05T02:41:10.979Z,1.60
2023-03-05T02:42:10.997Z,2.30
2023-03-05T02:43:11.014Z,1.90
2023-03-05T02:44:11.062Z,1.80
2023-03-05T02:45:11.080Z,1.60
2023-03-05T02:46:11.128Z,1.90
2023-03-05T02:47:11.102Z,2.30
2023-03-05T02:48:11.107Z,1.70
2023-03-05T02:49:11.117Z,2.90
2023-03-05T02:50:11.138Z,1.80
2023-03-05T02:51:11.151Z,2.40
2023-03-05T02:52:11.182Z,1.70
2023-03-05T02:53:11.190Z,1.80
2023-03-05T02:54:11.204Z,1.70
2023-03-05T02:55:11.240Z,2.00
2023-03-05T02:56:11.235Z,1.90
2023-03-05T02:57:11.258Z,1.70
2023-03-05T02:58:11.268Z,1.80
2023-03-05T02:59:11.285Z,1.70
2023-03-05T03:00:11.383Z,1.90
2023-03-05T03:01:11.365Z,1.70
2023-03-05T03:02:11.341Z,1.90
2023-03-05T03:03:11.440Z,3.00
2023-03-05T03:04:11.375Z,1.90
2023-03-05T03:05:11.393Z,2.30
2023-03-05T03:06:11.409Z,1.90
2023-03-05T03:07:11.430Z,2.00
2023-03-05T03:08:11.448Z,1.80
2023-03-05T03:09:11.461Z,2.30
2023-03-05T03:10:11.491Z,2.00
2023-03-05T03:11:11.492Z,2.20
2023-03-05T03:12:11.502Z,1.90
2023-03-05T03:13:11.536Z,2.40
2023-03-05T03:14:11.542Z,2.80
2023-03-05T03:15:11.572Z,2.90
2023-03-05T03:16:11.597Z,3.00
2023-03-05T03:17:11.618Z,2.00
2023-03-05T03:18:11.609Z,2.30
2023-03-05T03:19:11.645Z,2.10
2023-03-05T03:20:11.636Z,2.50
2023-03-05T03:21:11.654Z,2.00
2023-03-05T03:22:11.671Z,2.10
2023-03-05T03:23:11.689Z,2.10
2023-03-05T03:24:11.714Z,1.90
2023-03-05T03:25:11.722Z,2.10
2023-03-05T03:26:11.739Z,2.50
2023-03-05T03:27:11.766Z,2.50
2023-03-05T03:28:11.779Z,2.40
2023-03-05T03:29:11.797Z,2.00
2023-03-05T03:30:11.808Z,1.90
2023-03-05T03:31:11.934Z,2.00
2023-03-05T03:32:11.884Z,2.60
2023-03-05T03:33:11.864Z,2.20
2023-03-05T03:34:11.876Z,2.30
2023-03-05T03:35:11.918Z,2.10
2023-03-05T03:36:11.918Z,2.10
2023-03-05T03:37:11.928Z,2.10
2023-03-05T03:38:11.962Z,2.70
2023-03-05T03:39:11.958Z,2.80
2023-03-05T03:40:11.987Z,2.40
2023-03-05T03:41:11.998Z,2.50
2023-03-05T03:42:12.020Z,2.30
2023-03-05T03:43:12.043Z,2.80
2023-03-05T03:44:12.050Z,2.30
2023-03-05T03:45:12.060Z,2.10
2023-03-05T03:46:12.112Z,1.90
2023-03-05T03:47:12.105Z,2.10
2023-03-05T03:48:12.139Z,2.40
2023-03-05T03:49:12.125Z,2.00
2023-03-05T03:50:12.147Z,2.40
2023-03-05T03:51:12.184Z,2.10
2023-03-05T03:52:12.187Z,2.40
2023-03-05T03:53:12.192Z,2.10
2023-03-05T03:54:12.209Z,2.40
2023-03-05T03:55:12.227Z,2.20
2023-03-05T03:56:12.242Z,2.70
2023-03-05T03:57:12.265Z,2.20
2023-03-05T03:58:12.279Z,2.20
2023-03-05T03:59:12.311Z,2.80
2023-03-05T04:00:12.325Z,2.20
2023-03-05T04:01:12.333Z,2.20
2023-03-05T04:02:12.406Z,2.20
2023-03-05T04:03:12.362Z,2.50
2023-03-05T04:04:12.483Z,2.80
2023-03-05T04:05:12.402Z,2.60
2023-03-05T04:06:12.409Z,2.50
2023-03-05T04:07:12.453Z,2.20
2023-03-05T04:08:12.460Z,2.20
2023-03-05T04:09:12.458Z,2.80
2023-03-05T04:10:12.484Z,2.10
2023-03-05T04:11:12.501Z,2.10
2023-03-05T04:12:12.511Z,2.20
2023-03-05T04:13:12.527Z,3.20
2023-03-05T04:14:12.543Z,2.40
2023-03-05T04:15:12.565Z,2.30
2023-03-05T04:16:12.630Z,3.60
2023-03-05T04:17:12.601Z,2.50
2023-03-05T04:18:12.624Z,2.70
2023-03-05T04:19:12.636Z,3.10
2023-03-05T04:20:12.653Z,2.70
2023-03-05T04:21:12.675Z,2.20
2023-03-05T04:22:12.690Z,1.90
2023-03-05T04:23:12.714Z,2.80
2023-03-05T04:24:12.717Z,2.20
2023-03-05T04:25:12.727Z,2.10
2023-03-05T04:26:12.756Z,2.50
2023-03-05T04:27:12.761Z,2.20
2023-03-05T04:28:12.787Z,2.30
2023-03-05T04:29:12.806Z,2.50
2023-03-05T04:30:12.819Z,2.10
2023-03-05T04:31:12.896Z,2.50
2023-03-05T04:32:12.905Z,1.90
2023-03-05T04:33:12.861Z,2.20
2023-03-05T04:34:12.879Z,2.40
2023-03-05T04:35:12.886Z,2.20
2023-03-05T04:36:12.917Z,2.20
2023-03-05T04:37:12.926Z,3.00
2023-03-05T04:38:12.942Z,2.30
2023-03-05T04:39:12.986Z,2.30
2023-03-05T04:40:12.973Z,2.60
2023-03-05T04:41:12.990Z,3.10
2023-03-05T04:42:13.001Z,2.60
2023-03-05T04:43:13.025Z,2.20
2023-03-05T04:44:13.050Z,2.20
2023-03-05T04:45:13.052Z,2.30
2023-03-05T04:46:13.185Z,2.40
2023-03-05T04:47:13.097Z,2.40
2023-03-05T04:48:13.107Z,2.30
2023-03-05T04:49:13.118Z,2.40
2023-03-05T04:50:13.131Z,2.20
2023-03-05T04:51:13.158Z,3.40
2023-03-05T04:52:13.170Z,2.30
2023-03-05T04:53:13.188Z,2.30
2023-03-05T04:54:13.199Z,2.50
2023-03-05T04:55:13.246Z,2.40
2023-03-05T04:56:13.230Z,2.10
2023-03-05T04:57:13.252Z,2.40
2023-03-05T04:58:13.272Z,2.40
2023-03-05T04:59:13.282Z,2.40
2023-03-05T05:00:13.300Z,2.50
2023-03-05T05:01:13.334Z,2.80
2023-03-05T05:02:13.338Z,2.20
2023-03-05T05:03:13.463Z,3.20
2023-03-05T05:04:13.364Z,2.40
2023-03-05T05:05:13.389Z,2.40
2023-03-05T05:06:13.399Z,2.50
2023-03-05T05:07:13.425Z,2.20
2023-03-05T05:08:13.436Z,2.30
2023-03-05T05:09:13.447Z,2.40
2023-03-05T05:10:13.467Z,2.70
2023-03-05T05:11:13.506Z,2.90
2023-03-05T05:12:13.506Z,2.70
2023-03-05T05:13:13.525Z,2.40
2023-03-05T05:14:13.538Z,2.80
2023-03-05T05:15:13.559Z,2.30
2023-03-05T05:16:13.617Z,2.60
2023-03-05T05:17:13.579Z,2.10
2023-03-05T05:18:13.604Z,2.20
2023-03-05T05:19:13.662Z,2.30
2023-03-05T05:20:13.628Z,2.40
2023-03-05T05:21:13.656Z,2.70
2023-03-05T05:22:13.670Z,2.10
2023-03-05T05:23:13.682Z,2.40
2023-03-05T05:24:13.730Z,2.20
2023-03-05T05:25:13.726Z,2.10
2023-03-05T05:26:13.734Z,2.40
2023-03-05T05:27:13.793Z,2.30
2023-03-05T05:28:13.768Z,2.60
2023-03-05T05:29:13.785Z,2.20
2023-03-05T05:30:13.808Z,2.90
2023-03-05T05:31:13.930Z,4.20
2023-03-05T05:32:13.867Z,2.10
2023-03-05T05:33:13.851Z,2.60
2023-03-05T05:34:13.862Z,2.70
2023-03-05T05:35:13.880Z,2.40
2023-03-05T05:36:13.906Z,2.80
2023-03-05T05:37:13.924Z,2.10
2023-03-05T05:38:13.936Z,2.10
2023-03-05T05:39:13.956Z,3.10
2023-03-05T05:40:13.972Z,2.30
2023-03-05T05:41:14.002Z,2.20
2023-03-05T05:42:13.998Z,2.50
2023-03-05T05:43:14.042Z,2.40
2023-03-05T05:44:14.039Z,2.30
2023-03-05T05:45:14.170Z,2.00
2023-03-05T05:46:14.189Z,2.20
2023-03-05T05:47:14.089Z,2.60
2023-03-05T05:48:14.108Z,2.20
2023-03-05T05:49:14.117Z,2.90
2023-03-05T05:50:14.140Z,2.30
2023-03-05T05:51:14.150Z,2.30
2023-03-05T05:52:14.196Z,2.20
2023-03-05T05:53:14.192Z,2.20
2023-03-05T05:54:14.204Z,3.20
2023-03-05T05:55:14.223Z,2.40
2023-03-05T05:56:14.248Z,2.10
2023-03-05T05:57:14.253Z,2.60
2023-03-05T05:58:14.271Z,2.30
2023-03-05T05:59:14.306Z,2.50
2023-03-05T06:00:14.297Z,2.20
2023-03-05T06:01:14.321Z,2.00
2023-03-05T06:02:14.420Z,2.30
2023-03-05T06:03:14.501Z,2.50
2023-03-05T06:04:14.366Z,2.20
2023-03-05T06:05:14.384Z,3.00
2023-03-05T06:06:14.402Z,2.30
2023-03-05T06:07:14.420Z,3.00
2023-03-05T06:08:14.439Z,1.90
2023-03-05T06:09:14.444Z,2.20
2023-03-05T06:10:14.467Z,2.30
2023-03-05T06:11:14.484Z,2.00
2023-03-05T06:12:14.505Z,2.10
2023-03-05T06:13:14.512Z,2.00
2023-03-05T06:14:14.544Z,1.90
2023-03-05T06:15:14.564Z,2.10
2023-03-05T06:16:14.592Z,2.00
2023-03-05T06:17:21.879Z,2.20
2023-03-05T06:18:14.592Z,2.10
2023-03-05T06:19:14.628Z,2.00
2023-03-05T06:20:14.647Z,2.30
2023-03-05T06:21:14.650Z,2.60
2023-03-05T06:22:14.658Z,2.20
2023-03-05T06:23:14.674Z,2.20
2023-03-05T06:24:14.703Z,2.60
2023-03-05T06:25:14.714Z,1.70
2023-03-05T06:26:14.731Z,2.20
2023-03-05T06:27:14.741Z,2.00
2023-03-05T06:28:14.779Z,1.90
2023-03-05T06:29:14.780Z,2.10
2023-03-05T06:30:14.796Z,1.80
2023-03-05T06:31:14.856Z,1.90
2023-03-05T06:32:14.844Z,2.20
2023-03-05T06:33:14.844Z,2.50
2023-03-05T06:34:14.864Z,2.00
2023-03-05T06:35:14.878Z,2.30
2023-03-05T06:36:14.896Z,1.90
2023-03-05T06:37:14.915Z,2.30
2023-03-05T06:38:14.923Z,2.10
2023-03-05T06:39:14.946Z,1.70
2023-03-05T06:40:14.959Z,2.00
2023-03-05T06:41:14.975Z,2.30
2023-03-05T06:42:14.985Z,1.90
2023-03-05T06:43:15.013Z,2.10
2023-03-05T06:44:15.025Z,2.40
2023-03-05T06:45:15.036Z,2.20
2023-03-05T06:46:15.104Z,1.80
2023-03-05T06:47:15.096Z,1.70
2023-03-05T06:48:15.091Z,2.30
2023-03-05T06:49:15.117Z,2.20
2023-03-05T06:50:15.123Z,1.80
2023-03-05T06:51:15.141Z,2.00
2023-03-05T06:52:15.149Z,1.70
2023-03-05T06:53:15.165Z,2.00
2023-03-05T06:54:15.191Z,2.20
2023-03-05T06:55:15.214Z,1.90
2023-03-05T06:56:15.246Z,1.90
2023-03-05T06:57:15.238Z,2.50
2023-03-05T06:58:15.256Z,2.20
2023-03-05T06:59:15.278Z,2.00
2023-03-05T07:00:15.292Z,1.80
2023-03-05T07:01:15.360Z,1.80
2023-03-05T07:02:15.370Z,1.90
2023-03-05T07:03:15.346Z,1.90
2023-03-05T07:04:15.345Z,1.70
2023-03-05T07:05:15.376Z,1.70
2023-03-05T07:06:15.379Z,2.00
2023-03-05T07:07:15.446Z,1.70
2023-03-05T07:08:15.432Z,1.60
2023-03-05T07:09:15.447Z,2.10
2023-03-05T07:10:15.449Z,1.90
2023-03-05T07:11:15.464Z,1.90
2023-03-05T07:12:15.484Z,2.50
2023-03-05T07:13:15.501Z,1.90
2023-03-05T07:14:15.521Z,2.00
2023-03-05T07:15:15.534Z,2.30
2023-03-05T07:16:15.619Z,2.00
2023-03-05T07:17:15.558Z,1.60
2023-03-05T07:18:15.575Z,2.10
2023-03-05T07:19:15.611Z,1.60
2023-03-05T07:20:15.611Z,1.70
2023-03-05T07:21:15.624Z,2.60
2023-03-05T07:22:15.641Z,1.70
2023-03-05T07:23:15.658Z,2.00
2023-03-05T07:24:15.705Z,1.70
2023-03-05T07:25:15.753Z,1.80
2023-03-05T07:26:15.714Z,1.70
2023-03-05T07:27:15.722Z,1.70
2023-03-05T07:28:15.750Z,2.20
2023-03-05T07:29:15.757Z,2.20
2023-03-05T07:30:15.779Z,1.60
2023-03-05T07:31:15.824Z,1.90
2023-03-05T07:32:15.866Z,1.70
2023-03-05T07:33:15.820Z,2.30
2023-03-05T07:34:15.845Z,1.90
2023-03-05T07:35:15.904Z,2.20
2023-03-05T07:36:15.870Z,1.70
2023-03-05T07:37:15.885Z,1.80
2023-03-05T07:38:15.912Z,1.60
2023-03-05T07:39:15.931Z,1.90
2023-03-05T07:40:15.947Z,1.60
2023-03-05T07:41:15.958Z,1.90
2023-03-05T07:42:16.005Z,1.90
2023-03-05T07:43:15.987Z,1.80
2023-03-05T07:44:16.003Z,1.70
2023-03-05T07:45:16.023Z,1.50
2023-03-05T07:46:16.087Z,2.50
2023-03-05T07:47:16.052Z,2.00
2023-03-05T07:48:16.068Z,2.00
2023-03-05T07:49:16.089Z,1.80
2023-03-05T07:50:16.105Z,2.00
2023-03-05T07:51:16.151Z,1.90
2023-03-05T07:52:16.132Z,1.50
2023-03-05T07:53:16.148Z,2.60
2023-03-05T07:54:16.172Z,1.60
2023-03-05T07:55:16.189Z,1.60
2023-03-05T07:56:16.206Z,1.60
2023-03-05T07:57:16.213Z,1.70
2023-03-05T07:58:16.236Z,1.60
2023-03-05T07:59:16.247Z,2.20
2023-03-05T08:00:16.275Z,1.90
2023-03-05T08:01:16.294Z,1.50
2023-03-05T08:02:16.343Z,1.50
2023-03-05T08:03:16.318Z,1.60
2023-03-05T08:04:16.414Z,1.40
2023-03-05T08:05:16.344Z,1.50
2023-03-05T08:06:16.361Z,1.90
2023-03-05T08:07:16.395Z,2.60
2023-03-05T08:08:16.402Z,2.00
2023-03-05T08:09:16.410Z,1.70
2023-03-05T08:10:16.432Z,1.60
2023-03-05T08:11:16.455Z,1.60
2023-03-05T08:12:16.466Z,1.90
2023-03-05T08:13:16.495Z,1.60
2023-03-05T08:14:16.494Z,1.50
2023-03-05T08:15:16.530Z,1.50
2023-03-05T08:16:16.627Z,1.40
2023-03-05T08:17:16.538Z,1.60
2023-03-05T08:18:16.563Z,1.50
2023-03-05T08:19:16.579Z,1.60
2023-03-05T08:20:16.597Z,1.80
2023-03-05T08:21:16.609Z,1.60
2023-03-05T08:22:16.627Z,1.60
2023-03-05T08:23:16.656Z,1.70
2023-03-05T08:24:16.652Z,1.60
2023-03-05T08:25:16.675Z,1.70
2023-03-05T08:26:16.700Z,1.60
2023-03-05T08:27:16.706Z,1.80
2023-03-05T08:28:16.724Z,1.70
2023-03-05T08:29:16.733Z,1.50
2023-03-05T08:30:16.758Z,1.40
2023-03-05T08:31:16.854Z,1.80
2023-03-05T08:32:16.834Z,1.40
2023-03-05T08:33:16.811Z,1.50
2023-03-05T08:34:16.821Z,1.80
2023-03-05T08:35:16.884Z,1.40
2023-03-05T08:36:16.856Z,1.40
2023-03-05T08:37:16.865Z,2.10
2023-03-05T08:38:16.886Z,1.50
2023-03-05T08:39:16.917Z,1.80
2023-03-05T08:40:16.921Z,1.30
2023-03-05T08:41:16.935Z,1.40
2023-03-05T08:42:16.961Z,1.30
2023-03-05T08:43:16.961Z,1.50
2023-03-05T08:44:16.985Z,1.40
2023-03-05T08:45:17.002Z,1.50
2023-03-05T08:46:17.091Z,1.40
2023-03-05T08:47:17.026Z,1.50
2023-03-05T08:48:17.043Z,2.10
2023-03-05T08:49:17.059Z,1.50
2023-03-05T08:50:17.087Z,1.70
2023-03-05T08:51:17.093Z,1.30
2023-03-05T08:52:17.115Z,1.40
2023-03-05T08:53:17.124Z,1.30
2023-03-05T08:54:17.151Z,1.80
2023-03-05T08:55:17.198Z,1.30
2023-03-05T08:56:17.172Z,1.40
2023-03-05T08:57:17.199Z,1.30
2023-03-05T08:58:17.204Z,1.40
2023-03-05T08:59:17.228Z,1.70
2023-03-05T09:00:17.250Z,1.50
2023-03-05T09:01:17.273Z,1.30
2023-03-05T09:02:17.274Z,1.40
2023-03-05T09:03:17.368Z,1.40
2023-03-05T09:04:17.310Z,1.40
2023-03-05T09:05:17.332Z,1.40
2023-03-05T09:06:17.342Z,1.30
2023-03-05T09:07:17.357Z,1.40
2023-03-05T09:08:17.377Z,1.30
2023-03-05T09:09:17.383Z,1.60
2023-03-05T09:10:17.406Z,1.40
2023-03-05T09:11:17.438Z,1.50
2023-03-05T09:12:17.441Z,1.30
2023-03-05T09:13:17.448Z,1.30
2023-03-05T09:14:17.466Z,1.30
2023-03-05T09:15:17.484Z,1.40
2023-03-05T09:16:17.646Z,1.40
2023-03-05T09:17:17.512Z,1.50
2023-03-05T09:18:17.532Z,1.20
2023-03-05T09:19:17.545Z,1.20
2023-03-05T09:20:17.575Z,1.50
2023-03-05T09:21:17.617Z,1.30
2023-03-05T09:22:17.593Z,1.20
2023-03-05T09:23:17.615Z,1.40
2023-03-05T09:24:17.633Z,1.40
2023-03-05T09:25:17.662Z,1.30
2023-03-05T09:26:17.670Z,1.30
2023-03-05T09:27:17.704Z,1.30
2023-03-05T09:28:17.697Z,1.70
2023-03-05T09:29:17.714Z,1.30
2023-03-05T09:30:17.721Z,1.30
2023-03-05T09:31:17.762Z,1.80
2023-03-05T09:32:17.858Z,1.30
2023-03-05T09:33:17.771Z,1.60
2023-03-05T09:34:17.785Z,1.30
2023-03-05T09:35:17.826Z,1.20
2023-03-05T09:36:17.825Z,1.40
2023-03-05T09:37:17.841Z,1.20
2023-03-05T09:38:17.852Z,1.20
2023-03-05T09:39:17.876Z,1.20
2023-03-05T09:40:17.883Z,1.40
2023-03-05T09:41:17.897Z,1.30
2023-03-05T09:42:17.914Z,1.30
2023-03-05T09:43:17.962Z,1.20
2023-03-05T09:44:17.954Z,1.10
2023-03-05T09:45:17.975Z,1.20
2023-03-05T09:46:17.985Z,1.20
2023-03-05T09:47:18.002Z,1.30
2023-03-05T09:48:18.022Z,1.20
2023-03-05T09:49:18.033Z,1.10
2023-03-05T09:50:18.050Z,1.30
2023-03-05T09:51:18.061Z,2.30
2023-03-05T09:52:18.083Z,1.30
2023-03-05T09:53:18.098Z,1.40
2023-03-05T09:54:18.116Z,1.40
2023-03-05T09:55:18.132Z,1.10
2023-03-05T09:56:18.148Z,1.20
2023-03-05T09:57:18.168Z,1.00
2023-03-05T09:58:18.178Z,1.20
2023-03-05T09:59:18.208Z,1.20
2023-03-05T10:00:18.213Z,1.40
2023-03-05T10:01:18.228Z,1.00
2023-03-05T10:02:18.247Z,1.20
2023-03-05T10:03:18.304Z,1.20
2023-03-05T10:04:18.313Z,1.90
2023-03-05T10:05:18.294Z,1.30
2023-03-05T10:06:18.310Z,1.10
2023-03-05T10:07:18.318Z,1.10
2023-03-05T10:08:18.343Z,1.30
2023-03-05T10:09:18.358Z,1.30
2023-03-05T10:10:18.374Z,1.30
2023-03-05T10:11:18.390Z,1.20
2023-03-05T10:12:18.402Z,1.50
2023-03-05T10:13:18.422Z,1.20
2023-03-05T10:14:18.458Z,1.50
2023-03-05T10:15:18.633Z,1.10
2023-03-05T10:16:18.506Z,1.10
2023-03-05T10:17:18.482Z,1.00
2023-03-05T10:18:18.504Z,1.20
2023-03-05T10:19:18.521Z,1.10
2023-03-05T10:20:18.536Z,1.30
2023-03-05T10:21:18.544Z,1.40
2023-03-05T10:22:18.573Z,1.10
2023-03-05T10:23:18.578Z,1.10
2023-03-05T10:24:18.600Z,1.00
2023-03-05T10:25:18.712Z,1.20
2023-03-05T10:26:18.623Z,1.20
2023-03-05T10:27:18.703Z,1.30
2023-03-05T10:28:18.665Z,1.10
2023-03-05T10:29:18.679Z,1.20
2023-03-05T10:30:18.688Z,1.00
2023-03-05T10:31:18.748Z,1.60
2023-03-05T10:32:18.867Z,1.10
2023-03-05T10:33:18.744Z,0.90
2023-03-05T10:34:18.754Z,1.10
2023-03-05T10:35:18.863Z,1.40
2023-03-05T10:36:18.792Z,1.10
2023-03-05T10:37:18.802Z,1.30
2023-03-05T10:38:18.827Z,1.20
2023-03-05T10:39:18.840Z,1.00
2023-03-05T10:40:18.849Z,1.20
2023-03-05T10:41:18.873Z,1.40
2023-03-05T10:42:18.893Z,0.80
2023-03-05T10:43:18.904Z,1.80
2023-03-05T10:44:18.922Z,0.90
2023-03-05T10:45:18.937Z,1.10
2023-03-05T10:46:19.057Z,1.30
2023-03-05T10:47:18.984Z,1.00
2023-03-05T10:48:18.987Z,1.00
2023-03-05T10:49:19.010Z,1.40
2023-03-05T10:50:19.063Z,2.00
2023-03-05T10:51:19.035Z,1.00
2023-03-05T10:52:19.052Z,1.40
2023-03-05T10:53:19.066Z,1.30
2023-03-05T10:54:19.078Z,1.10
2023-03-05T10:55:19.105Z,1.10
2023-03-05T10:56:19.117Z,1.20
2023-03-05T10:57:19.125Z,1.10
2023-03-05T10:58:19.146Z,0.80
2023-03-05T10:59:19.162Z,1.10
2023-03-05T11:00:19.304Z,1.10
2023-03-05T11:01:19.265Z,1.10
2023-03-05T11:02:19.306Z,0.90
2023-03-05T11:03:19.238Z,1.10
2023-03-05T11:04:19.234Z,1.50
2023-03-05T11:05:19.262Z,1.20
2023-03-05T11:06:19.264Z,1.10
2023-03-05T11:07:19.288Z,1.10
2023-03-05T11:08:19.297Z,1.20
2023-03-05T11:09:19.310Z,0.80
2023-03-05T11:10:19.440Z,1.00
2023-03-05T11:11:19.345Z,1.20
2023-03-05T11:12:19.359Z,1.10
2023-03-05T11:13:19.382Z,1.00
2023-03-05T11:14:19.396Z,1.00
2023-03-05T11:15:19.408Z,0.90
2023-03-05T11:16:20.994Z,1.20
2023-03-05T11:17:19.439Z,0.90
2023-03-05T11:18:19.454Z,0.80
2023-03-05T11:19:19.524Z,1.20
2023-03-05T11:20:19.494Z,1.10
2023-03-05T11:21:19.506Z,1.20
2023-03-05T11:22:19.519Z,1.20
2023-03-05T11:23:19.535Z,1.10
2023-03-05T11:24:19.551Z,1.00
2023-03-05T11:25:19.574Z,1.00
2023-03-05T11:26:19.582Z,1.30
2023-03-05T11:27:19.606Z,1.40
2023-03-05T11:28:32.056Z,1.30
2023-03-05T11:29:19.638Z,1.40
2023-03-05T11:30:19.653Z,1.80
2023-03-05T11:31:19.715Z,1.20
2023-03-05T11:32:19.773Z,1.00
2023-03-05T11:33:19.692Z,1.10
2023-03-05T11:34:19.721Z,1.10
2023-03-05T11:35:19.781Z,1.30
2023-03-05T11:36:19.750Z,1.00
2023-03-05T11:37:19.759Z,0.90
2023-03-05T11:38:19.776Z,1.70
2023-03-05T11:39:19.791Z,0.90
2023-03-05T11:40:19.827Z,1.10
2023-03-05T11:41:19.831Z,0.90
2023-03-05T11:42:19.853Z,0.70
2023-03-05T11:43:19.859Z,0.90
2023-03-05T11:44:19.877Z,0.90
2023-03-05T11:45:19.892Z,1.20
2023-03-05T11:46:19.970Z,0.80
2023-03-05T11:47:19.930Z,0.90
2023-03-05T11:48:19.947Z,1.10
2023-03-05T11:49:19.952Z,1.00
2023-03-05T11:50:19.970Z,0.90
2023-03-05T11:51:20.004Z,1.00
2023-03-05T11:52:20.004Z,0.90
2023-03-05T11:53:20.017Z,0.70
2023-03-05T11:54:20.045Z,1.00
2023-03-05T11:55:20.058Z,0.80
2023-03-05T11:56:20.071Z,0.70
2023-03-05T11:57:20.084Z,1.10
2023-03-05T11:58:20.101Z,0.80
2023-03-05T11:59:20.130Z,0.80
2023-03-05T12:00:20.149Z,0.90
2023-03-05T12:01:20.161Z,0.90
2023-03-05T12:02:20.290Z,0.70
2023-03-05T12:03:20.200Z,0.80
2023-03-05T12:04:20.206Z,1.30
2023-03-05T12:05:20.222Z,1.60
2023-03-05T12:06:20.230Z,1.10
2023-03-05T12:12:06.123Z,0.80
2023-03-05T12:13:06.107Z,0.90
2023-03-05T12:14:06.130Z,0.90
2023-03-05T12:15:06.142Z,1.00
2023-03-05T12:16:06.253Z,1.40
2023-03-05T12:17:06.179Z,0.80
2023-03-05T12:18:06.196Z,1.00
2023-03-05T12:19:06.213Z,0.80
2023-03-05T12:20:06.311Z,1.00
2023-03-05T12:21:06.246Z,0.80
2023-03-05T12:22:06.259Z,0.70
2023-03-05T12:23:06.271Z,0.80
2023-03-05T12:24:06.283Z,1.20
2023-03-05T12:25:06.309Z,0.90
2023-03-05T12:26:06.323Z,0.70
2023-03-05T12:27:06.330Z,0.90
2023-03-05T12:28:06.410Z,0.80
2023-03-05T12:29:06.364Z,0.80
2023-03-05T12:30:06.392Z,1.30
2023-03-05T12:31:06.468Z,0.80
2023-03-05T12:32:06.483Z,0.70
2023-03-05T12:33:06.440Z,0.80
2023-03-05T12:34:06.451Z,0.80
2023-03-05T12:35:06.464Z,0.90
2023-03-05T12:36:06.517Z,0.70
2023-03-05T12:37:06.492Z,0.90
2023-03-05T12:38:25.614Z,0.70
2023-03-05T12:39:06.533Z,0.90
2023-03-05T12:40:06.543Z,0.90
2023-03-05T12:41:06.562Z,0.70
2023-03-05T12:42:06.580Z,0.80
2023-03-05T12:43:06.588Z,0.90
2023-03-05T12:44:06.629Z,0.90
2023-03-05T12:45:06.621Z,0.90
2023-03-05T12:46:06.644Z,0.80
2023-03-05T12:47:06.672Z,0.90
2023-03-05T12:48:06.668Z,0.70
2023-03-05T12:49:06.693Z,0.80
2023-03-05T12:50:06.710Z,1.10
2023-03-05T12:51:06.718Z,0.90
2023-03-05T12:52:06.741Z,0.70
2023-03-05T12:53:06.795Z,0.80
2023-03-05T12:54:06.773Z,0.80
2023-03-05T12:55:06.782Z,0.70
2023-03-05T12:56:06.798Z,0.90
2023-03-05T12:57:06.832Z,1.40
2023-03-05T12:58:06.830Z,1.10
2023-03-05T12:59:06.846Z,0.80
2023-03-05T13:00:06.891Z,1.20
2023-03-05T13:01:06.911Z,0.80
2023-03-05T13:02:06.898Z,0.80
2023-03-05T13:03:06.931Z,0.90
2023-03-05T13:04:06.926Z,0.80
2023-03-05T13:05:06.950Z,1.20
2023-03-05T13:06:06.964Z,1.40
2023-03-05T13:07:06.979Z,1.00
2023-03-05T13:08:06.993Z,2.40
2023-03-05T13:09:07.013Z,0.80
2023-03-05T13:10:07.032Z,0.80
2023-03-05T13:11:07.063Z,2.00
2023-03-05T13:12:07.091Z,0.70
2023-03-05T13:13:07.064Z,1.70
2023-03-05T13:14:07.087Z,1.00
2023-03-05T13:15:07.113Z,0.70
2023-03-05T13:16:07.155Z,0.60
2023-03-05T13:17:07.135Z,0.70
2023-03-05T13:18:07.144Z,1.20
2023-03-05T13:19:07.159Z,0.70
2023-03-05T13:20:07.194Z,1.80
2023-03-05T13:21:07.202Z,1.00
2023-03-05T13:22:07.215Z,0.80
2023-03-05T13:23:07.222Z,0.60